sensor_id;sensor_type;location;lat;lon;timestamp;P1;durP1;ratioP1;P2;durP2;ratioP2
36593;SDS011;22603;47.900;8.146;2023-05-29T00:00:20;13.07;;;3.37;;
36593;SDS011;22603;47.900;8.146;2023-05-29T00:03:46;15.40;;;3.50;;
36593;SDS011;22603;47.900;8.146;2023-05-29T00:07:19;9.53;;;3.47;;
36593;SDS011;22603;47.900;8.146;2023-05-29T00:10:38;11.50;;;3.40;;
36593;SDS011;22603;47.900;8.146;2023-05-29T00:13:59;14.53;;;3.47;;
36593;SDS011;22603;47.900;8.146;2023-05-29T00:17:13;13.47;;;3.43;;
36593;SDS011;22603;47.900;8.146;2023-05-29T00:20:26;11.10;;;3.73;;
36593;SDS011;22603;47.900;8.146;2023-05-29T00:23:43;12.27;;;3.93;;
36593;SDS011;22603;47.900;8.146;2023-05-29T00:26:52;7.87;;;3.00;;
36593;SDS011;22603;47.900;8.146;2023-05-29T00:30:14;7.87;;;3.23;;
36593;SDS011;22603;47.900;8.146;2023-05-29T00:33:42;7.90;;;2.73;;
36593;SDS011;22603;47.900;8.146;2023-05-29T00:36:59;10.60;;;3.30;;
36593;SDS011;22603;47.900;8.146;2023-05-29T00:40:20;9.50;;;3.13;;
36593;SDS011;22603;47.900;8.146;2023-05-29T00:43:31;17.43;;;4.13;;
36593;SDS011;22603;47.900;8.146;2023-05-29T00:46:44;9.20;;;3.40;;
36593;SDS011;22603;47.900;8.146;2023-05-29T00:49:57;9.17;;;3.60;;
36593;SDS011;22603;47.900;8.146;2023-05-29T00:53:25;11.47;;;4.03;;
36593;SDS011;22603;47.900;8.146;2023-05-29T00:56:47;9.00;;;3.20;;
36593;SDS011;22603;47.900;8.146;2023-05-29T01:00:07;10.20;;;3.43;;
36593;SDS011;22603;47.900;8.146;2023-05-29T01:03:43;9.50;;;3.20;;
36593;SDS011;22603;47.900;8.146;2023-05-29T01:07:12;11.33;;;3.53;;
36593;SDS011;22603;47.900;8.146;2023-05-29T01:10:53;12.53;;;3.70;;
36593;SDS011;22603;47.900;8.146;2023-05-29T01:14:38;8.00;;;3.00;;
36593;SDS011;22603;47.900;8.146;2023-05-29T01:18:19;10.87;;;3.70;;
36593;SDS011;22603;47.900;8.146;2023-05-29T01:21:50;10.13;;;3.10;;
36593;SDS011;22603;47.900;8.146;2023-05-29T01:25:35;13.77;;;3.20;;
36593;SDS011;22603;47.900;8.146;2023-05-29T01:29:24;9.93;;;3.50;;
36593;SDS011;22603;47.900;8.146;2023-05-29T01:33:10;8.90;;;3.20;;
36593;SDS011;22603;47.900;8.146;2023-05-29T01:36:22;12.40;;;3.70;;
36593;SDS011;22603;47.900;8.146;2023-05-29T01:39:32;12.40;;;3.27;;
36593;SDS011;22603;47.900;8.146;2023-05-29T01:42:37;8.40;;;2.73;;
36593;SDS011;22603;47.900;8.146;2023-05-29T01:45:56;9.73;;;3.10;;
36593;SDS011;22603;47.900;8.146;2023-05-29T01:49:33;10.17;;;3.57;;
36593;SDS011;22603;47.900;8.146;2023-05-29T01:52:59;6.80;;;2.70;;
36593;SDS011;22603;47.900;8.146;2023-05-29T01:56:22;7.70;;;3.13;;
36593;SDS011;22603;47.900;8.146;2023-05-29T01:59:48;9.70;;;3.27;;
36593;SDS011;22603;47.900;8.146;2023-05-29T02:03:20;10.10;;;3.40;;
36593;SDS011;22603;47.900;8.146;2023-05-29T02:06:39;9.73;;;3.00;;
36593;SDS011;22603;47.900;8.146;2023-05-29T02:10:02;10.83;;;3.67;;
36593;SDS011;22603;47.900;8.146;2023-05-29T02:13:16;10.33;;;3.50;;
36593;SDS011;22603;47.900;8.146;2023-05-29T02:16:36;10.60;;;2.97;;
36593;SDS011;22603;47.900;8.146;2023-05-29T02:20:11;9.07;;;3.10;;
36593;SDS011;22603;47.900;8.146;2023-05-29T02:23:37;13.77;;;3.73;;
36593;SDS011;22603;47.900;8.146;2023-05-29T02:27:00;12.67;;;3.30;;
36593;SDS011;22603;47.900;8.146;2023-05-29T02:30:13;10.10;;;3.17;;
36593;SDS011;22603;47.900;8.146;2023-05-29T02:33:31;10.93;;;3.40;;
36593;SDS011;22603;47.900;8.146;2023-05-29T02:37:08;13.03;;;3.47;;
36593;SDS011;22603;47.900;8.146;2023-05-29T02:40:28;11.67;;;3.47;;
36593;SDS011;22603;47.900;8.146;2023-05-29T02:44:08;12.70;;;3.67;;
36593;SDS011;22603;47.900;8.146;2023-05-29T02:47:38;8.47;;;3.00;;
36593;SDS011;22603;47.900;8.146;2023-05-29T02:51:10;8.97;;;2.83;;
36593;SDS011;22603;47.900;8.146;2023-05-29T02:54:56;12.20;;;3.83;;
36593;SDS011;22603;47.900;8.146;2023-05-29T02:58:27;9.83;;;2.87;;
36593;SDS011;22603;47.900;8.146;2023-05-29T03:01:52;8.93;;;3.57;;
36593;SDS011;22603;47.900;8.146;2023-05-29T03:05:31;10.60;;;3.20;;
36593;SDS011;22603;47.900;8.146;2023-05-29T03:08:53;10.93;;;3.13;;
36593;SDS011;22603;47.900;8.146;2023-05-29T03:12:33;11.57;;;3.50;;
36593;SDS011;22603;47.900;8.146;2023-05-29T03:16:09;10.37;;;3.60;;
36593;SDS011;22603;47.900;8.146;2023-05-29T03:19:31;12.17;;;3.27;;
36593;SDS011;22603;47.900;8.146;2023-05-29T03:23:09;10.77;;;3.57;;
36593;SDS011;22603;47.900;8.146;2023-05-29T03:30:39;9.13;;;3.67;;
36593;SDS011;22603;47.900;8.146;2023-05-29T03:34:07;8.80;;;2.90;;
36593;SDS011;22603;47.900;8.146;2023-05-29T03:37:22;9.33;;;2.77;;
36593;SDS011;22603;47.900;8.146;2023-05-29T03:41:01;7.63;;;3.03;;
36593;SDS011;22603;47.900;8.146;2023-05-29T03:44:11;7.77;;;3.10;;
36593;SDS011;22603;47.900;8.146;2023-05-29T03:47:46;13.73;;;3.57;;
36593;SDS011;22603;47.900;8.146;2023-05-29T03:51:33;11.30;;;3.23;;
36593;SDS011;22603;47.900;8.146;2023-05-29T03:55:20;9.20;;;3.70;;
36593;SDS011;22603;47.900;8.146;2023-05-29T04:02:40;11.53;;;3.73;;
36593;SDS011;22603;47.900;8.146;2023-05-29T04:06:07;11.70;;;3.70;;
36593;SDS011;22603;47.900;8.146;2023-05-29T04:09:13;12.33;;;3.67;;
36593;SDS011;22603;47.900;8.146;2023-05-29T04:12:32;8.50;;;3.60;;
36593;SDS011;22603;47.900;8.146;2023-05-29T04:15:40;10.13;;;3.60;;
36593;SDS011;22603;47.900;8.146;2023-05-29T04:18:56;12.87;;;3.80;;
36593;SDS011;22603;47.900;8.146;2023-05-29T04:22:27;12.10;;;3.70;;
36593;SDS011;22603;47.900;8.146;2023-05-29T04:25:54;10.73;;;3.80;;
36593;SDS011;22603;47.900;8.146;2023-05-29T04:29:11;15.07;;;5.10;;
36593;SDS011;22603;47.900;8.146;2023-05-29T04:32:38;11.40;;;4.17;;
36593;SDS011;22603;47.900;8.146;2023-05-29T04:36:33;10.53;;;4.37;;
36593;SDS011;22603;47.900;8.146;2023-05-29T04:39:53;12.37;;;4.57;;
36593;SDS011;22603;47.900;8.146;2023-05-29T04:43:16;11.57;;;4.00;;
36593;SDS011;22603;47.900;8.146;2023-05-29T04:46:27;10.27;;;4.00;;
36593;SDS011;22603;47.900;8.146;2023-05-29T04:49:46;9.83;;;3.83;;
36593;SDS011;22603;47.900;8.146;2023-05-29T04:53:34;19.27;;;3.80;;
36593;SDS011;22603;47.900;8.146;2023-05-29T04:57:16;12.13;;;3.57;;
36593;SDS011;22603;47.900;8.146;2023-05-29T05:11:17;13.23;;;4.33;;
36593;SDS011;22603;47.900;8.146;2023-05-29T05:14:05;8.77;;;3.40;;
36593;SDS011;22603;47.900;8.146;2023-05-29T05:16:53;11.50;;;3.67;;
36593;SDS011;22603;47.900;8.146;2023-05-29T05:19:40;13.50;;;4.30;;
36593;SDS011;22603;47.900;8.146;2023-05-29T05:22:27;11.70;;;4.20;;
36593;SDS011;22603;47.900;8.146;2023-05-29T05:29:47;13.47;;;3.80;;
36593;SDS011;22603;47.900;8.146;2023-05-29T05:33:38;11.60;;;3.73;;
36593;SDS011;22603;47.900;8.146;2023-05-29T05:37:04;9.03;;;3.40;;
36593;SDS011;22603;47.900;8.146;2023-05-29T05:41:11;10.83;;;3.10;;
36593;SDS011;22603;47.900;8.146;2023-05-29T05:44:57;10.93;;;3.23;;
36593;SDS011;22603;47.900;8.146;2023-05-29T05:52:26;9.30;;;3.40;;
36593;SDS011;22603;47.900;8.146;2023-05-29T05:56:51;11.23;;;3.30;;
36593;SDS011;22603;47.900;8.146;2023-05-29T06:04:20;10.30;;;3.33;;
36593;SDS011;22603;47.900;8.146;2023-05-29T06:07:58;9.13;;;3.20;;
36593;SDS011;22603;47.900;8.146;2023-05-29T06:11:36;14.63;;;4.17;;
36593;SDS011;22603;47.900;8.146;2023-05-29T06:15:19;13.07;;;3.27;;
36593;SDS011;22603;47.900;8.146;2023-05-29T06:18:56;12.57;;;3.40;;
36593;SDS011;22603;47.900;8.146;2023-05-29T06:22:39;10.63;;;3.53;;
36593;SDS011;22603;47.900;8.146;2023-05-29T06:26:10;9.03;;;3.17;;
36593;SDS011;22603;47.900;8.146;2023-05-29T06:29:36;10.27;;;3.20;;
36593;SDS011;22603;47.900;8.146;2023-05-29T06:33:19;12.38;;;3.45;;
36593;SDS011;22603;47.900;8.146;2023-05-29T06:37:10;12.93;;;4.13;;
36593;SDS011;22603;47.900;8.146;2023-05-29T06:40:54;9.43;;;3.45;;
36593;SDS011;22603;47.900;8.146;2023-05-29T06:44:12;10.65;;;3.63;;
36593;SDS011;22603;47.900;8.146;2023-05-29T06:47:51;8.77;;;3.10;;
36593;SDS011;22603;47.900;8.146;2023-05-29T06:51:32;8.82;;;3.13;;
36593;SDS011;22603;47.900;8.146;2023-05-29T06:55:27;10.23;;;3.40;;
36593;SDS011;22603;47.900;8.146;2023-05-29T06:58:54;9.15;;;3.63;;
36593;SDS011;22603;47.900;8.146;2023-05-29T07:02:39;11.40;;;3.50;;
36593;SDS011;22603;47.900;8.146;2023-05-29T07:06:03;11.75;;;3.83;;
36593;SDS011;22603;47.900;8.146;2023-05-29T07:09:50;9.40;;;3.40;;
36593;SDS011;22603;47.900;8.146;2023-05-29T07:13:27;8.80;;;3.30;;
36593;SDS011;22603;47.900;8.146;2023-05-29T07:16:52;15.32;;;3.53;;
36593;SDS011;22603;47.900;8.146;2023-05-29T07:20:37;10.82;;;3.45;;
36593;SDS011;22603;47.900;8.146;2023-05-29T07:24:22;9.07;;;3.13;;
36593;SDS011;22603;47.900;8.146;2023-05-29T07:27:48;10.90;;;3.97;;
36593;SDS011;22603;47.900;8.146;2023-05-29T07:31:36;10.13;;;3.13;;
36593;SDS011;22603;47.900;8.146;2023-05-29T07:35:27;9.57;;;3.53;;
36593;SDS011;22603;47.900;8.146;2023-05-29T07:39:17;10.07;;;3.05;;
36593;SDS011;22603;47.900;8.146;2023-05-29T07:43:09;8.93;;;2.85;;
36593;SDS011;22603;47.900;8.146;2023-05-29T07:46:42;10.50;;;3.20;;
36593;SDS011;22603;47.900;8.146;2023-05-29T07:49:30;8.40;;;3.67;;
36593;SDS011;22603;47.900;8.146;2023-05-29T07:52:17;9.52;;;3.17;;
36593;SDS011;22603;47.900;8.146;2023-05-29T07:55:04;8.05;;;2.90;;
36593;SDS011;22603;47.900;8.146;2023-05-29T07:57:51;9.70;;;3.25;;
36593;SDS011;22603;47.900;8.146;2023-05-29T08:00:38;9.10;;;3.03;;
36593;SDS011;22603;47.900;8.146;2023-05-29T08:03:26;8.20;;;3.30;;
36593;SDS011;22603;47.900;8.146;2023-05-29T08:06:13;11.88;;;3.05;;
36593;SDS011;22603;47.900;8.146;2023-05-29T08:09:00;7.95;;;3.10;;
36593;SDS011;22603;47.900;8.146;2023-05-29T08:11:48;8.70;;;3.17;;
36593;SDS011;22603;47.900;8.146;2023-05-29T08:14:35;9.88;;;3.28;;
36593;SDS011;22603;47.900;8.146;2023-05-29T08:17:22;9.52;;;3.10;;
36593;SDS011;22603;47.900;8.146;2023-05-29T08:20:10;9.60;;;3.15;;
36593;SDS011;22603;47.900;8.146;2023-05-29T08:22:58;8.82;;;3.35;;
36593;SDS011;22603;47.900;8.146;2023-05-29T08:25:45;7.47;;;2.65;;
36593;SDS011;22603;47.900;8.146;2023-05-29T08:28:33;7.63;;;2.75;;
36593;SDS011;22603;47.900;8.146;2023-05-29T08:31:20;7.60;;;2.90;;
36593;SDS011;22603;47.900;8.146;2023-05-29T08:34:08;9.75;;;3.20;;
36593;SDS011;22603;47.900;8.146;2023-05-29T08:36:57;7.55;;;2.83;;
36593;SDS011;22603;47.900;8.146;2023-05-29T08:39:45;8.55;;;3.05;;
36593;SDS011;22603;47.900;8.146;2023-05-29T08:42:32;9.80;;;2.97;;
36593;SDS011;22603;47.900;8.146;2023-05-29T08:45:21;7.60;;;2.90;;
36593;SDS011;22603;47.900;8.146;2023-05-29T08:48:10;10.18;;;3.65;;
36593;SDS011;22603;47.900;8.146;2023-05-29T08:50:58;11.15;;;3.17;;
36593;SDS011;22603;47.900;8.146;2023-05-29T08:53:50;9.95;;;3.25;;
36593;SDS011;22603;47.900;8.146;2023-05-29T08:56:37;6.93;;;2.75;;
36593;SDS011;22603;47.900;8.146;2023-05-29T08:59:24;9.80;;;3.10;;
36593;SDS011;22603;47.900;8.146;2023-05-29T09:02:13;11.48;;;3.58;;
36593;SDS011;22603;47.900;8.146;2023-05-29T09:05:00;11.27;;;3.08;;
36593;SDS011;22603;47.900;8.146;2023-05-29T09:07:47;8.45;;;3.38;;
36593;SDS011;22603;47.900;8.146;2023-05-29T09:10:37;10.13;;;3.40;;
36593;SDS011;22603;47.900;8.146;2023-05-29T09:13:27;9.02;;;3.38;;
36593;SDS011;22603;47.900;8.146;2023-05-29T09:16:15;8.48;;;3.40;;
36593;SDS011;22603;47.900;8.146;2023-05-29T09:19:06;8.30;;;3.38;;
36593;SDS011;22603;47.900;8.146;2023-05-29T09:22:02;15.60;;;3.35;;
36593;SDS011;22603;47.900;8.146;2023-05-29T09:24:50;9.48;;;3.67;;
36593;SDS011;22603;47.900;8.146;2023-05-29T09:27:39;8.60;;;3.00;;
36593;SDS011;22603;47.900;8.146;2023-05-29T09:30:34;10.88;;;3.63;;
36593;SDS011;22603;47.900;8.146;2023-05-29T09:33:22;10.98;;;3.33;;
36593;SDS011;22603;47.900;8.146;2023-05-29T09:36:11;9.10;;;3.75;;
36593;SDS011;22603;47.900;8.146;2023-05-29T09:39:06;9.35;;;3.63;;
36593;SDS011;22603;47.900;8.146;2023-05-29T09:42:02;11.23;;;3.38;;
36593;SDS011;22603;47.900;8.146;2023-05-29T09:44:52;7.50;;;3.25;;
36593;SDS011;22603;47.900;8.146;2023-05-29T09:47:39;8.63;;;3.30;;
36593;SDS011;22603;47.900;8.146;2023-05-29T09:50:27;8.75;;;3.33;;
36593;SDS011;22603;47.900;8.146;2023-05-29T09:53:15;9.50;;;3.13;;
36593;SDS011;22603;47.900;8.146;2023-05-29T09:56:04;9.73;;;3.33;;
36593;SDS011;22603;47.900;8.146;2023-05-29T09:58:53;9.50;;;3.33;;
36593;SDS011;22603;47.900;8.146;2023-05-29T10:01:44;9.30;;;3.45;;
36593;SDS011;22603;47.900;8.146;2023-05-29T10:04:31;8.50;;;3.42;;
36593;SDS011;22603;47.900;8.146;2023-05-29T10:07:20;13.50;;;3.45;;
36593;SDS011;22603;47.900;8.146;2023-05-29T10:10:13;10.63;;;3.60;;
36593;SDS011;22603;47.900;8.146;2023-05-29T10:13:00;8.85;;;3.63;;
36593;SDS011;22603;47.900;8.146;2023-05-29T10:15:49;7.18;;;3.20;;
36593;SDS011;22603;47.900;8.146;2023-05-29T10:18:42;10.10;;;3.65;;
36593;SDS011;22603;47.900;8.146;2023-05-29T10:21:30;9.38;;;3.50;;
36593;SDS011;22603;47.900;8.146;2023-05-29T10:24:18;11.18;;;3.72;;
36593;SDS011;22603;47.900;8.146;2023-05-29T10:27:06;8.85;;;3.25;;
36593;SDS011;22603;47.900;8.146;2023-05-29T10:29:59;8.82;;;3.30;;
36593;SDS011;22603;47.900;8.146;2023-05-29T10:33:03;8.07;;;3.28;;
36593;SDS011;22603;47.900;8.146;2023-05-29T10:36:03;9.65;;;3.17;;
36593;SDS011;22603;47.900;8.146;2023-05-29T10:38:56;10.68;;;3.30;;
36593;SDS011;22603;47.900;8.146;2023-05-29T10:41:43;12.45;;;3.55;;
36593;SDS011;22603;47.900;8.146;2023-05-29T10:44:39;11.35;;;3.60;;
36593;SDS011;22603;47.900;8.146;2023-05-29T10:47:26;10.30;;;3.45;;
36593;SDS011;22603;47.900;8.146;2023-05-29T10:50:13;10.77;;;3.95;;
36593;SDS011;22603;47.900;8.146;2023-05-29T10:53:25;9.65;;;3.40;;
36593;SDS011;22603;47.900;8.146;2023-05-29T10:56:20;9.35;;;3.40;;
36593;SDS011;22603;47.900;8.146;2023-05-29T10:59:09;10.30;;;3.17;;
36593;SDS011;22603;47.900;8.146;2023-05-29T11:01:56;7.78;;;3.28;;
36593;SDS011;22603;47.900;8.146;2023-05-29T11:04:44;9.48;;;3.63;;
36593;SDS011;22603;47.900;8.146;2023-05-29T11:07:52;9.77;;;3.30;;
36593;SDS011;22603;47.900;8.146;2023-05-29T11:10:44;9.80;;;3.58;;
36593;SDS011;22603;47.900;8.146;2023-05-29T11:13:42;8.30;;;3.17;;
36593;SDS011;22603;47.900;8.146;2023-05-29T11:16:39;11.20;;;3.42;;
36593;SDS011;22603;47.900;8.146;2023-05-29T11:19:26;10.85;;;3.45;;
36593;SDS011;22603;47.900;8.146;2023-05-29T11:22:14;8.30;;;3.17;;
36593;SDS011;22603;47.900;8.146;2023-05-29T11:25:09;10.48;;;3.30;;
36593;SDS011;22603;47.900;8.146;2023-05-29T11:28:01;9.48;;;3.35;;
36593;SDS011;22603;47.900;8.146;2023-05-29T11:30:53;8.88;;;3.35;;
36593;SDS011;22603;47.900;8.146;2023-05-29T11:33:47;8.77;;;3.05;;
36593;SDS011;22603;47.900;8.146;2023-05-29T11:36:36;11.20;;;3.10;;
36593;SDS011;22603;47.900;8.146;2023-05-29T11:39:23;10.00;;;3.53;;
36593;SDS011;22603;47.900;8.146;2023-05-29T11:42:11;9.13;;;3.05;;
36593;SDS011;22603;47.900;8.146;2023-05-29T11:45:10;7.50;;;3.30;;
36593;SDS011;22603;47.900;8.146;2023-05-29T11:47:59;9.63;;;2.90;;
36593;SDS011;22603;47.900;8.146;2023-05-29T11:50:47;9.82;;;2.75;;
36593;SDS011;22603;47.900;8.146;2023-05-29T11:53:34;9.05;;;3.28;;
36593;SDS011;22603;47.900;8.146;2023-05-29T11:56:22;10.48;;;2.85;;
36593;SDS011;22603;47.900;8.146;2023-05-29T11:59:10;7.00;;;2.38;;
36593;SDS011;22603;47.900;8.146;2023-05-29T12:01:59;7.80;;;2.90;;
36593;SDS011;22603;47.900;8.146;2023-05-29T12:04:59;10.00;;;3.30;;
36593;SDS011;22603;47.900;8.146;2023-05-29T12:08:02;7.65;;;2.85;;
36593;SDS011;22603;47.900;8.146;2023-05-29T12:12:23;8.40;;;3.00;;
36593;SDS011;22603;47.900;8.146;2023-05-29T13:00:13;7.90;;;2.92;;
36593;SDS011;22603;47.900;8.146;2023-05-29T13:03:00;9.52;;;2.90;;
36593;SDS011;22603;47.900;8.146;2023-05-29T13:05:47;7.90;;;2.80;;
36593;SDS011;22603;47.900;8.146;2023-05-29T13:08:35;6.75;;;2.58;;
36593;SDS011;22603;47.900;8.146;2023-05-29T13:11:22;9.90;;;2.83;;
36593;SDS011;22603;47.900;8.146;2023-05-29T13:14:10;7.35;;;2.70;;
36593;SDS011;22603;47.900;8.146;2023-05-29T13:16:59;6.35;;;2.22;;
36593;SDS011;22603;47.900;8.146;2023-05-29T13:19:46;8.60;;;2.47;;
36593;SDS011;22603;47.900;8.146;2023-05-29T13:22:34;6.68;;;2.53;;
36593;SDS011;22603;47.900;8.146;2023-05-29T13:25:21;9.95;;;2.92;;
36593;SDS011;22603;47.900;8.146;2023-05-29T13:28:09;10.10;;;2.67;;
36593;SDS011;22603;47.900;8.146;2023-05-29T13:30:56;7.85;;;2.60;;
36593;SDS011;22603;47.900;8.146;2023-05-29T13:33:46;8.18;;;2.72;;
36593;SDS011;22603;47.900;8.146;2023-05-29T13:36:33;9.13;;;2.90;;
36593;SDS011;22603;47.900;8.146;2023-05-29T13:39:21;10.35;;;3.05;;
36593;SDS011;22603;47.900;8.146;2023-05-29T13:42:09;9.07;;;2.45;;
36593;SDS011;22603;47.900;8.146;2023-05-29T13:44:56;7.15;;;3.03;;
36593;SDS011;22603;47.900;8.146;2023-05-29T13:47:44;7.75;;;2.60;;
36593;SDS011;22603;47.900;8.146;2023-05-29T13:50:32;8.95;;;3.00;;
36593;SDS011;22603;47.900;8.146;2023-05-29T13:53:19;8.13;;;2.70;;
36593;SDS011;22603;47.900;8.146;2023-05-29T13:56:06;8.77;;;2.60;;
36593;SDS011;22603;47.900;8.146;2023-05-29T13:58:54;7.18;;;2.53;;
36593;SDS011;22603;47.900;8.146;2023-05-29T14:01:41;7.95;;;2.60;;
36593;SDS011;22603;47.900;8.146;2023-05-29T14:04:29;6.55;;;2.60;;
36593;SDS011;22603;47.900;8.146;2023-05-29T14:07:17;7.78;;;2.72;;
36593;SDS011;22603;47.900;8.146;2023-05-29T14:10:05;8.55;;;3.00;;
36593;SDS011;22603;47.900;8.146;2023-05-29T14:12:55;7.45;;;2.60;;
36593;SDS011;22603;47.900;8.146;2023-05-29T14:15:42;15.40;;;3.28;;
36593;SDS011;22603;47.900;8.146;2023-05-29T14:18:29;7.13;;;2.90;;
36593;SDS011;22603;47.900;8.146;2023-05-29T14:21:16;8.57;;;2.83;;
36593;SDS011;22603;47.900;8.146;2023-05-29T14:24:06;8.32;;;2.97;;
36593;SDS011;22603;47.900;8.146;2023-05-29T14:26:54;7.15;;;2.72;;
36593;SDS011;22603;47.900;8.146;2023-05-29T14:29:40;7.50;;;2.53;;
36593;SDS011;22603;47.900;8.146;2023-05-29T14:32:28;8.02;;;2.80;;
36593;SDS011;22603;47.900;8.146;2023-05-29T14:35:15;9.30;;;2.85;;
36593;SDS011;22603;47.900;8.146;2023-05-29T14:38:02;9.10;;;3.00;;
36593;SDS011;22603;47.900;8.146;2023-05-29T14:40:51;7.55;;;2.85;;
36593;SDS011;22603;47.900;8.146;2023-05-29T14:43:53;8.63;;;3.03;;
36593;SDS011;22603;47.900;8.146;2023-05-29T14:46:43;7.70;;;3.08;;
36593;SDS011;22603;47.900;8.146;2023-05-29T14:49:30;7.03;;;2.85;;
36593;SDS011;22603;47.900;8.146;2023-05-29T14:52:18;10.10;;;2.97;;
36593;SDS011;22603;47.900;8.146;2023-05-29T14:55:06;8.38;;;2.75;;
36593;SDS011;22603;47.900;8.146;2023-05-29T14:57:54;6.82;;;2.83;;
36593;SDS011;22603;47.900;8.146;2023-05-29T15:00:41;9.15;;;2.42;;
36593;SDS011;22603;47.900;8.146;2023-05-29T15:03:28;8.63;;;2.90;;
36593;SDS011;22603;47.900;8.146;2023-05-29T15:06:16;9.20;;;2.80;;
36593;SDS011;22603;47.900;8.146;2023-05-29T15:09:02;11.68;;;3.40;;
36593;SDS011;22603;47.900;8.146;2023-05-29T15:11:49;8.65;;;2.80;;
36593;SDS011;22603;47.900;8.146;2023-05-29T15:14:37;8.20;;;3.00;;
36593;SDS011;22603;47.900;8.146;2023-05-29T15:17:24;6.55;;;2.60;;
36593;SDS011;22603;47.900;8.146;2023-05-29T15:20:11;10.05;;;3.20;;
36593;SDS011;22603;47.900;8.146;2023-05-29T15:22:58;11.60;;;3.38;;
36593;SDS011;22603;47.900;8.146;2023-05-29T15:25:45;8.25;;;3.00;;
36593;SDS011;22603;47.900;8.146;2023-05-29T15:28:32;8.20;;;2.92;;
36593;SDS011;22603;47.900;8.146;2023-05-29T15:31:21;6.93;;;2.50;;
36593;SDS011;22603;47.900;8.146;2023-05-29T15:34:08;9.10;;;2.80;;
36593;SDS011;22603;47.900;8.146;2023-05-29T15:36:55;9.40;;;3.10;;
36593;SDS011;22603;47.900;8.146;2023-05-29T15:39:42;7.65;;;2.85;;
36593;SDS011;22603;47.900;8.146;2023-05-29T15:42:31;8.90;;;2.88;;
36593;SDS011;22603;47.900;8.146;2023-05-29T15:45:18;6.90;;;2.75;;
36593;SDS011;22603;47.900;8.146;2023-05-29T15:48:06;7.75;;;2.83;;
36593;SDS011;22603;47.900;8.146;2023-05-29T15:50:53;7.70;;;3.13;;
36593;SDS011;22603;47.900;8.146;2023-05-29T15:53:40;8.05;;;2.58;;
36593;SDS011;22603;47.900;8.146;2023-05-29T15:56:27;9.70;;;2.83;;
36593;SDS011;22603;47.900;8.146;2023-05-29T15:59:14;11.00;;;3.15;;
36593;SDS011;22603;47.900;8.146;2023-05-29T16:02:02;8.45;;;3.20;;
36593;SDS011;22603;47.900;8.146;2023-05-29T16:04:50;8.95;;;3.50;;
36593;SDS011;22603;47.900;8.146;2023-05-29T16:07:51;9.02;;;3.05;;
36593;SDS011;22603;47.900;8.146;2023-05-29T16:10:37;7.97;;;2.90;;
36593;SDS011;22603;47.900;8.146;2023-05-29T16:13:27;8.80;;;2.80;;
36593;SDS011;22603;47.900;8.146;2023-05-29T16:16:15;7.32;;;2.78;;
36593;SDS011;22603;47.900;8.146;2023-05-29T16:19:04;9.60;;;2.80;;
36593;SDS011;22603;47.900;8.146;2023-05-29T16:21:53;8.88;;;2.70;;
36593;SDS011;22603;47.900;8.146;2023-05-29T16:24:40;8.65;;;2.83;;
36593;SDS011;22603;47.900;8.146;2023-05-29T16:27:28;7.88;;;2.90;;
36593;SDS011;22603;47.900;8.146;2023-05-29T16:30:15;12.15;;;2.90;;
36593;SDS011;22603;47.900;8.146;2023-05-29T16:33:02;8.25;;;3.00;;
36593;SDS011;22603;47.900;8.146;2023-05-29T16:35:50;7.43;;;2.72;;
36593;SDS011;22603;47.900;8.146;2023-05-29T16:38:39;8.38;;;2.95;;
36593;SDS011;22603;47.900;8.146;2023-05-29T16:41:26;7.85;;;2.92;;
36593;SDS011;22603;47.900;8.146;2023-05-29T16:44:13;6.28;;;2.63;;
36593;SDS011;22603;47.900;8.146;2023-05-29T16:47:00;8.50;;;2.80;;
36593;SDS011;22603;47.900;8.146;2023-05-29T16:49:47;8.98;;;3.47;;
36593;SDS011;22603;47.900;8.146;2023-05-29T16:52:34;8.13;;;2.63;;
36593;SDS011;22603;47.900;8.146;2023-05-29T16:55:23;8.45;;;3.00;;
36593;SDS011;22603;47.900;8.146;2023-05-29T16:58:11;6.57;;;2.67;;
36593;SDS011;22603;47.900;8.146;2023-05-29T17:00:58;9.55;;;2.97;;
36593;SDS011;22603;47.900;8.146;2023-05-29T17:03:45;9.95;;;2.92;;
36593;SDS011;22603;47.900;8.146;2023-05-29T17:06:32;9.10;;;3.15;;
36593;SDS011;22603;47.900;8.146;2023-05-29T17:09:19;6.38;;;2.30;;
36593;SDS011;22603;47.900;8.146;2023-05-29T17:12:10;6.43;;;2.45;;
36593;SDS011;22603;47.900;8.146;2023-05-29T17:14:58;6.78;;;2.40;;
36593;SDS011;22603;47.900;8.146;2023-05-29T17:17:46;9.93;;;2.88;;
36593;SDS011;22603;47.900;8.146;2023-05-29T17:20:32;8.65;;;2.40;;
36593;SDS011;22603;47.900;8.146;2023-05-29T17:23:21;25.90;;;4.00;;
36593;SDS011;22603;47.900;8.146;2023-05-29T17:26:08;10.27;;;2.80;;
36593;SDS011;22603;47.900;8.146;2023-05-29T17:28:57;7.78;;;2.90;;
36593;SDS011;22603;47.900;8.146;2023-05-29T17:31:44;7.05;;;2.20;;
36593;SDS011;22603;47.900;8.146;2023-05-29T17:34:31;7.65;;;2.72;;
36593;SDS011;22603;47.900;8.146;2023-05-29T17:37:18;6.97;;;2.55;;
36593;SDS011;22603;47.900;8.146;2023-05-29T17:40:05;8.82;;;3.08;;
36593;SDS011;22603;47.900;8.146;2023-05-29T17:42:53;7.20;;;2.47;;
36593;SDS011;22603;47.900;8.146;2023-05-29T17:45:43;8.13;;;2.65;;
36593;SDS011;22603;47.900;8.146;2023-05-29T17:48:31;8.20;;;2.75;;
36593;SDS011;22603;47.900;8.146;2023-05-29T17:51:18;10.07;;;2.45;;
36593;SDS011;22603;47.900;8.146;2023-05-29T17:54:07;6.78;;;2.55;;
36593;SDS011;22603;47.900;8.146;2023-05-29T17:56:55;8.80;;;2.72;;
36593;SDS011;22603;47.900;8.146;2023-05-29T17:59:43;7.70;;;2.70;;
36593;SDS011;22603;47.900;8.146;2023-05-29T18:02:31;7.22;;;2.33;;
36593;SDS011;22603;47.900;8.146;2023-05-29T18:05:18;9.25;;;2.78;;
36593;SDS011;22603;47.900;8.146;2023-05-29T18:08:05;8.50;;;2.30;;
36593;SDS011;22603;47.900;8.146;2023-05-29T18:10:53;5.40;;;2.13;;
36593;SDS011;22603;47.900;8.146;2023-05-29T18:13:40;7.00;;;2.42;;
36593;SDS011;22603;47.900;8.146;2023-05-29T18:16:27;6.93;;;2.70;;
36593;SDS011;22603;47.900;8.146;2023-05-29T18:19:21;10.77;;;2.50;;
36593;SDS011;22603;47.900;8.146;2023-05-29T18:22:08;9.73;;;2.92;;
36593;SDS011;22603;47.900;8.146;2023-05-29T18:24:56;7.95;;;2.65;;
36593;SDS011;22603;47.900;8.146;2023-05-29T18:27:43;8.13;;;2.60;;
36593;SDS011;22603;47.900;8.146;2023-05-29T18:30:30;6.78;;;2.30;;
36593;SDS011;22603;47.900;8.146;2023-05-29T18:33:17;7.85;;;2.60;;
36593;SDS011;22603;47.900;8.146;2023-05-29T18:36:06;8.82;;;2.65;;
36593;SDS011;22603;47.900;8.146;2023-05-29T18:38:53;8.05;;;2.65;;
36593;SDS011;22603;47.900;8.146;2023-05-29T18:41:40;5.40;;;2.30;;
36593;SDS011;22603;47.900;8.146;2023-05-29T18:44:28;7.40;;;2.35;;
36593;SDS011;22603;47.900;8.146;2023-05-29T18:47:15;8.20;;;2.28;;
36593;SDS011;22603;47.900;8.146;2023-05-29T18:50:03;9.13;;;2.40;;
36593;SDS011;22603;47.900;8.146;2023-05-29T18:52:52;6.47;;;2.72;;
36593;SDS011;22603;47.900;8.146;2023-05-29T18:55:39;8.07;;;2.50;;
36593;SDS011;22603;47.900;8.146;2023-05-29T18:58:26;12.57;;;2.40;;
36593;SDS011;22603;47.900;8.146;2023-05-29T19:01:13;8.75;;;2.40;;
36593;SDS011;22603;47.900;8.146;2023-05-29T19:04:15;8.23;;;3.10;;
36593;SDS011;22603;47.900;8.146;2023-05-29T19:07:03;7.90;;;2.53;;
36593;SDS011;22603;47.900;8.146;2023-05-29T19:09:52;8.30;;;2.92;;
36593;SDS011;22603;47.900;8.146;2023-05-29T19:12:45;7.05;;;2.65;;
36593;SDS011;22603;47.900;8.146;2023-05-29T19:17:08;11.38;;;3.00;;
36593;SDS011;22603;47.900;8.146;2023-05-29T19:21:09;6.85;;;2.30;;
36593;SDS011;22603;47.900;8.146;2023-05-29T19:25:03;10.20;;;2.50;;
36593;SDS011;22603;47.900;8.146;2023-05-29T19:28:56;7.80;;;2.20;;
36593;SDS011;22603;47.900;8.146;2023-05-29T19:33:01;9.05;;;3.05;;
36593;SDS011;22603;47.900;8.146;2023-05-29T19:36:33;7.15;;;2.30;;
36593;SDS011;22603;47.900;8.146;2023-05-29T19:40:50;6.70;;;2.50;;